createdAt,value
2023-02-09T00:00:09.455Z,0.00
2023-02-09T00:01:09.633Z,0.00
2023-02-09T00:02:09.441Z,0.00
2023-02-09T00:03:09.370Z,0.00
2023-02-09T00:04:09.318Z,0.00
2023-02-09T00:05:09.335Z,0.00
2023-02-09T00:06:09.289Z,0.00
2023-02-09T00:07:09.289Z,0.00
2023-02-09T00:08:09.281Z,0.00
2023-02-09T00:09:09.238Z,0.00
2023-02-09T00:10:09.227Z,0.00
2023-02-09T00:11:09.219Z,0.00
2023-02-09T00:12:09.184Z,0.00
2023-02-09T00:13:09.174Z,0.00
2023-02-09T00:14:09.157Z,0.00
2023-02-09T00:15:09.337Z,0.00
2023-02-09T00:16:09.165Z,0.00
2023-02-09T00:17:09.113Z,0.00
2023-02-09T00:18:09.077Z,0.00
2023-02-09T00:19:09.072Z,0.00
2023-02-09T00:20:09.067Z,0.00
2023-02-09T00:21:09.066Z,0.00
2023-02-09T00:22:09.035Z,0.00
2023-02-09T00:23:09.035Z,0.00
2023-02-09T00:24:08.985Z,0.00
2023-02-09T00:25:09.019Z,0.00
2023-02-09T00:26:08.949Z,0.00
2023-02-09T00:27:08.938Z,0.00
2023-02-09T00:28:08.926Z,0.00
2023-02-09T00:29:08.897Z,0.00
2023-02-09T00:30:08.907Z,0.00
2023-02-09T00:31:08.971Z,0.00
2023-02-09T00:32:08.989Z,0.00
2023-02-09T00:33:08.877Z,0.00
2023-02-09T00:34:08.824Z,0.00
2023-02-09T00:35:08.798Z,0.00
2023-02-09T00:36:08.974Z,0.00
2023-02-09T00:37:08.789Z,0.00
2023-02-09T00:38:08.755Z,0.00
2023-02-09T00:39:08.735Z,0.00
2023-02-09T00:40:08.724Z,0.00
2023-02-09T00:41:08.695Z,0.00
2023-02-09T00:42:08.696Z,0.00
2023-02-09T00:43:08.702Z,0.00
2023-02-09T00:44:08.655Z,0.00
2023-02-09T00:45:08.613Z,0.00
2023-02-09T00:46:08.709Z,0.00
2023-02-09T00:47:08.615Z,0.00
2023-02-09T00:48:08.608Z,0.00
2023-02-09T00:49:08.552Z,0.00
2023-02-09T00:50:08.608Z,0.00
2023-02-09T00:51:08.525Z,0.00
2023-02-09T00:52:09.997Z,0.00
2023-02-09T00:53:08.480Z,0.00
2023-02-09T00:54:08.512Z,0.00
2023-02-09T00:55:08.469Z,0.00
2023-02-09T00:56:08.471Z,0.00
2023-02-09T00:57:08.411Z,0.00
2023-02-09T00:58:08.457Z,0.00
2023-02-09T00:59:08.466Z,0.00
2023-02-09T01:00:08.379Z,0.00
2023-02-09T01:01:08.383Z,0.00
2023-02-09T01:02:08.345Z,0.00
2023-02-09T01:03:08.336Z,0.00
2023-02-09T01:04:08.355Z,0.00
2023-02-09T01:05:08.259Z,0.00
2023-02-09T01:06:08.273Z,0.00
2023-02-09T01:07:08.259Z,0.00
2023-02-09T01:08:08.219Z,0.00
2023-02-09T01:09:08.210Z,0.00
2023-02-09T01:10:09.203Z,0.00
2023-02-09T01:11:08.156Z,0.00
2023-02-09T01:12:08.147Z,0.00
2023-02-09T01:13:08.158Z,0.00
2023-02-09T01:14:08.105Z,0.00
2023-02-09T01:15:08.116Z,0.00
2023-02-09T01:16:08.102Z,0.00
2023-02-09T01:17:08.137Z,0.00
2023-02-09T01:18:08.231Z,0.00
2023-02-09T01:19:08.015Z,0.00
2023-02-09T01:20:08.042Z,0.00
2023-02-09T01:21:08.007Z,0.00
2023-02-09T01:22:07.976Z,0.00
2023-02-09T01:23:07.967Z,0.00
2023-02-09T01:24:07.946Z,0.00
2023-02-09T01:25:08.018Z,0.00
2023-02-09T01:26:07.922Z,0.00
2023-02-09T01:27:07.938Z,0.00
2023-02-09T01:28:08.000Z,0.00
2023-02-09T01:29:07.853Z,0.00
2023-02-09T01:30:07.825Z,0.00
2023-02-09T01:31:07.906Z,0.00
2023-02-09T01:32:08.057Z,0.00
2023-02-09T01:33:07.825Z,0.00
2023-02-09T01:34:07.780Z,0.00
2023-02-09T01:35:07.746Z,0.00
2023-02-09T01:36:07.768Z,0.00
2023-02-09T01:37:07.733Z,0.00
2023-02-09T01:38:07.752Z,0.00
2023-02-09T01:39:07.673Z,0.00
2023-02-09T01:40:07.689Z,0.00
2023-02-09T01:41:07.653Z,0.00
2023-02-09T01:42:07.663Z,0.00
2023-02-09T01:43:07.644Z,0.00
2023-02-09T01:44:07.606Z,0.00
2023-02-09T01:45:07.580Z,0.00
2023-02-09T01:46:07.615Z,0.00
2023-02-09T01:47:07.553Z,0.00
2023-02-09T01:48:07.587Z,0.00
2023-02-09T01:49:07.528Z,0.00
2023-02-09T01:50:07.474Z,0.00
2023-02-09T01:51:07.652Z,0.00
2023-02-09T01:52:07.485Z,0.00
2023-02-09T01:53:07.438Z,0.00
2023-02-09T01:54:07.484Z,0.00
2023-02-09T01:55:07.420Z,0.00
2023-02-09T01:56:07.406Z,0.00
2023-02-09T01:57:07.361Z,0.00
2023-02-09T01:58:07.389Z,0.00
2023-02-09T01:59:07.366Z,0.00
2023-02-09T02:00:07.400Z,0.00
2023-02-09T02:01:07.367Z,0.00
2023-02-09T02:02:07.357Z,0.00
2023-02-09T02:03:07.265Z,0.00
2023-02-09T02:04:07.275Z,0.00
2023-02-09T02:05:07.236Z,0.00
2023-02-09T02:06:07.204Z,0.00
2023-02-09T02:07:07.181Z,0.00
2023-02-09T02:08:07.190Z,0.00
2023-02-09T02:09:07.144Z,0.00
2023-02-09T02:10:07.126Z,0.00
2023-02-09T02:11:07.120Z,0.00
2023-02-09T02:12:07.106Z,0.00
2023-02-09T02:13:07.315Z,0.00
2023-02-09T02:14:07.297Z,0.00
2023-02-09T02:15:07.068Z,0.00
2023-02-09T02:16:07.355Z,0.00
2023-02-09T02:17:07.028Z,0.00
2023-02-09T02:18:07.050Z,0.00
2023-02-09T02:19:06.985Z,0.00
2023-02-09T02:20:07.018Z,0.00
2023-02-09T02:21:06.964Z,0.00
2023-02-09T02:22:06.971Z,0.00
2023-02-09T02:23:06.972Z,0.00
2023-02-09T02:24:06.965Z,0.00
2023-02-09T02:25:06.862Z,0.00
2023-02-09T02:26:07.261Z,0.00
2023-02-09T02:27:06.878Z,0.00
2023-02-09T02:28:06.911Z,0.00
2023-02-09T02:29:06.836Z,0.00
2023-02-09T02:30:06.774Z,0.00
2023-02-09T02:31:06.888Z,0.00
2023-02-09T02:32:06.757Z,0.00
2023-02-09T02:33:06.729Z,0.00
2023-02-09T02:34:06.719Z,0.00
2023-02-09T02:35:06.718Z,0.00
2023-02-09T02:36:06.679Z,0.00
2023-02-09T02:37:06.654Z,0.00
2023-02-09T02:38:06.632Z,0.00
2023-02-09T02:39:06.631Z,0.00
2023-02-09T02:40:06.626Z,0.00
2023-02-09T02:41:06.581Z,0.00
2023-02-09T02:42:06.550Z,0.00
2023-02-09T02:43:06.551Z,0.00
2023-02-09T02:44:06.549Z,0.00
2023-02-09T02:45:06.513Z,0.00
2023-02-09T02:46:06.522Z,0.00
2023-02-09T02:47:06.711Z,0.00
2023-02-09T02:48:06.712Z,0.00
2023-02-09T02:49:06.430Z,0.00
2023-02-09T02:50:06.422Z,0.00
2023-02-09T02:51:06.455Z,0.00
2023-02-09T02:52:06.412Z,0.00
2023-02-09T02:53:06.564Z,0.00
2023-02-09T02:54:06.343Z,0.00
2023-02-09T02:55:06.416Z,0.00
2023-02-09T02:56:06.339Z,0.00
2023-02-09T02:57:06.294Z,0.00
2023-02-09T02:58:06.281Z,0.00
2023-02-09T02:59:06.304Z,0.00
2023-02-09T03:00:06.275Z,0.00
2023-02-09T03:01:06.241Z,0.00
2023-02-09T03:02:06.202Z,0.00
2023-02-09T03:03:06.240Z,0.00
2023-02-09T03:04:06.235Z,0.00
2023-02-09T03:05:06.192Z,0.00
2023-02-09T03:06:06.140Z,0.00
2023-02-09T03:07:06.150Z,0.00
2023-02-09T03:08:06.347Z,0.00
2023-02-09T03:09:06.091Z,0.00
2023-02-09T03:10:06.080Z,0.00
2023-02-09T03:11:06.037Z,0.00
2023-02-09T03:12:06.085Z,0.00
2023-02-09T03:13:06.030Z,0.00
2023-02-09T03:14:05.996Z,0.00
2023-02-09T03:15:05.982Z,0.00
2023-02-09T03:16:06.006Z,0.00
2023-02-09T03:17:05.942Z,0.00
2023-02-09T03:18:05.928Z,0.00
2023-02-09T03:19:05.930Z,0.00
2023-02-09T03:20:05.902Z,0.00
2023-02-09T03:21:05.910Z,0.00
2023-02-09T03:22:06.070Z,0.00
2023-02-09T03:23:05.833Z,0.00
2023-02-09T03:24:05.816Z,0.00
2023-02-09T03:25:05.781Z,0.00
2023-02-09T03:26:05.839Z,0.00
2023-02-09T03:27:05.777Z,0.00
2023-02-09T03:28:05.832Z,0.00
2023-02-09T03:29:05.751Z,0.00
2023-02-09T03:30:05.718Z,0.00
2023-02-09T03:31:05.887Z,0.00
2023-02-09T03:32:05.686Z,0.00
2023-02-09T03:33:05.650Z,0.00
2023-02-09T03:34:05.659Z,0.00
2023-02-09T03:35:05.636Z,0.00
2023-02-09T03:36:05.582Z,0.00
2023-02-09T03:37:05.564Z,0.00
2023-02-09T03:38:05.574Z,0.00
2023-02-09T03:39:05.546Z,0.00
2023-02-09T03:40:05.512Z,0.00
2023-02-09T03:41:07.778Z,0.00
2023-02-09T03:42:05.518Z,0.00
2023-02-09T03:43:05.473Z,0.00
2023-02-09T03:44:05.500Z,0.00
2023-02-09T03:45:05.433Z,0.00
2023-02-09T03:46:05.403Z,0.00
2023-02-09T03:47:05.404Z,0.00
2023-02-09T03:48:05.412Z,0.00
2023-02-09T03:49:05.370Z,0.00
2023-02-09T03:50:05.390Z,0.00
2023-02-09T03:51:05.353Z,0.00
2023-02-09T03:52:05.308Z,0.00
2023-02-09T03:53:05.288Z,0.00
2023-02-09T03:54:05.300Z,0.00
2023-02-09T03:55:05.257Z,0.00
2023-02-09T03:56:05.317Z,0.00
2023-02-09T03:57:05.222Z,0.00
2023-02-09T03:58:05.188Z,0.00
2023-02-09T03:59:05.198Z,0.00
2023-02-09T04:00:05.185Z,0.00
2023-02-09T04:01:05.315Z,0.00
2023-02-09T04:02:05.254Z,0.00
2023-02-09T04:03:05.319Z,0.00
2023-02-09T04:04:05.088Z,0.00
2023-02-09T04:05:05.840Z,0.00
2023-02-09T04:06:05.043Z,0.00
2023-02-09T04:07:05.027Z,0.00
2023-02-09T04:08:05.006Z,0.00
2023-02-09T04:09:05.005Z,0.00
2023-02-09T04:10:05.017Z,0.00
2023-02-09T04:11:04.984Z,0.00
2023-02-09T04:12:04.931Z,0.00
2023-02-09T04:13:04.958Z,0.00
2023-02-09T04:14:04.913Z,0.00
2023-02-09T04:15:05.095Z,0.00
2023-02-09T04:16:04.945Z,0.00
2023-02-09T04:17:04.856Z,0.00
2023-02-09T04:18:05.049Z,0.00
2023-02-09T04:19:04.817Z,0.00
2023-02-09T04:20:04.837Z,0.00
2023-02-09T04:21:04.789Z,0.00
2023-02-09T04:22:04.814Z,0.00
2023-02-09T04:23:04.731Z,0.00
2023-02-09T04:24:04.742Z,0.00
2023-02-09T04:25:04.720Z,0.00
2023-02-09T04:26:04.697Z,0.00
2023-02-09T04:27:04.693Z,0.00
2023-02-09T04:28:04.752Z,0.00
2023-02-09T04:29:04.640Z,0.00
2023-02-09T04:30:04.636Z,0.00
2023-02-09T04:31:04.746Z,0.00
2023-02-09T04:32:04.745Z,0.00
2023-02-09T04:33:04.589Z,0.00
2023-02-09T04:34:04.556Z,0.00
2023-02-09T04:35:04.547Z,0.00
2023-02-09T04:36:04.532Z,0.00
2023-02-09T04:37:04.528Z,0.00
2023-02-09T04:38:04.554Z,0.00
2023-02-09T04:39:04.480Z,0.00
2023-02-09T04:40:06.728Z,0.00
2023-02-09T04:41:04.450Z,0.00
2023-02-09T04:42:04.424Z,0.00
2023-02-09T04:43:04.499Z,0.00
2023-02-09T04:44:04.438Z,0.00
2023-02-09T04:45:04.376Z,0.00
2023-02-09T04:46:04.468Z,0.00
2023-02-09T04:47:04.360Z,0.00
2023-02-09T04:48:04.309Z,0.00
2023-02-09T04:49:04.272Z,0.00
2023-02-09T04:50:04.234Z,0.00
2023-02-09T04:51:04.269Z,0.00
2023-02-09T04:52:04.215Z,0.00
2023-02-09T04:53:04.248Z,0.00
2023-02-09T04:54:04.223Z,0.00
2023-02-09T04:55:04.223Z,0.00
2023-02-09T04:56:04.177Z,0.00
2023-02-09T04:57:04.164Z,0.00
2023-02-09T04:58:04.136Z,0.00
2023-02-09T04:59:04.163Z,0.00
2023-02-09T05:00:04.121Z,0.00
2023-02-09T05:01:04.319Z,0.00
2023-02-09T05:02:04.040Z,0.00
2023-02-09T05:03:04.032Z,0.00
2023-02-09T05:04:04.085Z,0.00
2023-02-09T05:05:04.035Z,0.00
2023-02-09T05:06:04.154Z,0.00
2023-02-09T05:07:03.948Z,0.00
2023-02-09T05:08:03.946Z,0.00
2023-02-09T05:09:03.937Z,0.00
2023-02-09T05:10:03.923Z,0.00
2023-02-09T05:11:03.932Z,0.00
2023-02-09T05:12:03.870Z,0.00
2023-02-09T05:13:03.861Z,0.00
2023-02-09T05:14:03.875Z,0.00
2023-02-09T05:15:03.845Z,0.00
2023-02-09T05:16:03.837Z,0.00
2023-02-09T05:17:03.772Z,0.00
2023-02-09T05:18:03.748Z,0.00
2023-02-09T05:19:03.733Z,0.00
2023-02-09T05:20:03.754Z,0.00
2023-02-09T05:21:03.705Z,0.00
2023-02-09T05:22:03.695Z,0.00
2023-02-09T05:23:03.659Z,0.00
2023-02-09T05:24:03.642Z,0.00
2023-02-09T05:25:03.625Z,0.00
2023-02-09T05:26:03.658Z,0.00
2023-02-09T05:27:03.570Z,0.00
2023-02-09T05:28:03.647Z,0.00
2023-02-09T05:29:03.544Z,0.00
2023-02-09T05:30:03.536Z,0.00
2023-02-09T05:31:03.566Z,0.00
2023-02-09T05:32:03.725Z,0.00
2023-02-09T05:33:03.533Z,0.00
2023-02-09T05:34:03.558Z,0.00
2023-02-09T05:35:03.442Z,0.00
2023-02-09T05:36:03.435Z,0.00
2023-02-09T05:37:03.392Z,0.00
2023-02-09T05:38:03.358Z,0.00
2023-02-09T05:39:03.358Z,0.00
2023-02-09T05:40:03.376Z,0.00
2023-02-09T05:41:03.324Z,0.00
2023-02-09T05:42:03.506Z,0.00
2023-02-09T05:43:03.320Z,0.00
2023-02-09T05:44:03.258Z,0.00
2023-02-09T05:45:03.449Z,0.00
2023-02-09T05:46:03.289Z,0.00
2023-02-09T05:47:03.234Z,0.00
2023-02-09T05:48:03.223Z,0.00
2023-02-09T05:49:03.212Z,0.00
2023-02-09T05:50:03.187Z,0.00
2023-02-09T05:51:03.120Z,0.00
2023-02-09T05:52:03.162Z,0.00
2023-02-09T05:53:03.148Z,0.00
2023-02-09T05:54:03.128Z,0.00
2023-02-09T05:55:03.100Z,0.00
2023-02-09T05:56:03.065Z,0.00
2023-02-09T05:57:03.021Z,0.00
2023-02-09T05:58:03.037Z,0.00
2023-02-09T05:59:04.676Z,0.00
2023-02-09T06:00:02.956Z,0.00
2023-02-09T06:01:02.930Z,0.00
2023-02-09T06:02:03.031Z,0.00
2023-02-09T06:03:02.955Z,0.00
2023-02-09T06:04:02.906Z,0.00
2023-02-09T06:05:02.878Z,0.00
2023-02-09T06:06:02.858Z,0.00
2023-02-09T06:07:02.826Z,0.00
2023-02-09T06:08:02.820Z,0.00
2023-02-09T06:09:02.799Z,0.00
2023-02-09T06:10:02.775Z,0.00
2023-02-09T06:11:02.801Z,0.00
2023-02-09T06:12:02.758Z,0.00
2023-02-09T06:13:02.790Z,0.00
2023-02-09T06:14:02.732Z,0.00
2023-02-09T06:15:02.688Z,0.00
2023-02-09T06:16:02.780Z,0.00
2023-02-09T06:17:02.621Z,0.00
2023-02-09T06:18:02.645Z,0.00
2023-02-09T06:19:02.649Z,0.00
2023-02-09T06:20:02.590Z,0.00
2023-02-09T06:21:02.605Z,0.00
2023-02-09T06:22:02.579Z,0.00
2023-02-09T06:23:02.542Z,0.00
2023-02-09T06:24:02.516Z,0.00
2023-02-09T06:25:02.506Z,0.00
2023-02-09T06:26:02.480Z,0.00
2023-02-09T06:27:02.453Z,0.00
2023-02-09T06:28:02.613Z,0.00
2023-02-09T06:29:02.444Z,0.00
2023-02-09T06:30:02.411Z,0.00
2023-02-09T06:31:02.525Z,5.63
2023-02-09T06:32:02.505Z,5.63
2023-02-09T06:33:02.358Z,5.63
2023-02-09T06:34:02.350Z,5.63
2023-02-09T06:35:02.382Z,5.63
2023-02-09T06:36:02.318Z,5.63
2023-02-09T06:37:02.279Z,5.63
2023-02-09T06:38:02.284Z,5.63
2023-02-09T06:39:02.259Z,5.63
2023-02-09T06:40:02.251Z,11.25
2023-02-09T06:41:02.191Z,11.25
2023-02-09T06:42:02.185Z,11.25
2023-02-09T06:43:02.159Z,11.25
2023-02-09T06:44:02.140Z,11.25
2023-02-09T06:45:02.150Z,11.25
2023-02-09T06:46:02.164Z,11.25
2023-02-09T06:47:02.096Z,16.88
2023-02-09T06:48:02.086Z,16.88
2023-02-09T06:49:02.088Z,16.88
2023-02-09T06:50:02.232Z,16.88
2023-02-09T06:51:02.019Z,16.88
2023-02-09T06:52:02.017Z,22.50
2023-02-09T06:53:01.960Z,22.50
2023-02-09T06:54:01.946Z,22.50
2023-02-09T06:55:01.939Z,22.50
2023-02-09T06:56:01.981Z,22.50
2023-02-09T06:57:01.958Z,28.13
2023-02-09T06:58:01.873Z,33.75
2023-02-09T06:59:01.881Z,39.38
2023-02-09T07:00:01.849Z,50.63
2023-02-09T07:01:01.858Z,50.63
2023-02-09T07:02:01.921Z,61.88
2023-02-09T07:03:01.987Z,140.63
2023-02-09T07:04:01.808Z,241.88
2023-02-09T07:05:01.756Z,303.75
2023-02-09T07:06:01.744Z,320.63
2023-02-09T07:07:01.752Z,343.13
2023-02-09T07:08:01.724Z,360.00
2023-02-09T07:09:01.673Z,376.88
2023-02-09T07:10:01.685Z,393.75
2023-02-09T07:11:01.655Z,416.25
2023-02-09T07:12:01.678Z,433.13
2023-02-09T07:13:01.628Z,444.38
2023-02-09T07:14:01.609Z,466.88
2023-02-09T07:15:01.605Z,489.38
2023-02-09T07:16:01.621Z,511.88
2023-02-09T07:17:01.560Z,528.75
2023-02-09T07:18:01.572Z,534.38
2023-02-09T07:19:01.561Z,534.38
2023-02-09T07:20:01.578Z,517.50
2023-02-09T07:21:01.500Z,489.38
2023-02-09T07:22:01.679Z,478.13
2023-02-09T07:23:01.494Z,506.25
2023-02-09T07:24:01.516Z,540.00
2023-02-09T07:25:01.477Z,562.50
2023-02-09T07:26:01.429Z,585.00
2023-02-09T07:27:01.833Z,641.25
2023-02-09T07:28:01.535Z,669.38
2023-02-09T07:29:01.397Z,714.38
2023-02-09T07:30:01.611Z,742.50
2023-02-09T07:31:01.478Z,781.88
2023-02-09T07:32:01.438Z,804.38
2023-02-09T07:33:01.344Z,821.25
2023-02-09T07:34:01.333Z,843.75
2023-02-09T07:35:01.337Z,860.63
2023-02-09T07:36:01.299Z,860.63
2023-02-09T07:37:01.301Z,832.50
2023-02-09T07:38:01.276Z,787.50
2023-02-09T07:39:01.276Z,810.00
2023-02-09T07:40:01.264Z,821.25
2023-02-09T07:41:01.239Z,877.50
2023-02-09T07:42:01.255Z,933.75
2023-02-09T07:43:01.241Z,973.13
2023-02-09T07:44:01.223Z,995.63
2023-02-09T07:45:01.201Z,990.00
2023-02-09T07:46:01.187Z,973.13
2023-02-09T07:47:01.166Z,1001.25
2023-02-09T07:48:01.162Z,1018.13
2023-02-09T07:49:01.581Z,1040.63
2023-02-09T07:50:01.135Z,1085.63
2023-02-09T07:51:01.122Z,1096.88
2023-02-09T07:52:01.107Z,1119.38
2023-02-09T07:53:01.102Z,1136.25
2023-02-09T07:54:01.083Z,1164.38
2023-02-09T07:55:01.073Z,1192.50
2023-02-09T07:56:01.051Z,1220.63
2023-02-09T07:57:01.255Z,1237.50
2023-02-09T07:58:01.025Z,1260.00
2023-02-09T07:59:01.007Z,1231.88
2023-02-09T08:00:01.215Z,911.25
2023-02-09T08:01:00.995Z,388.13
2023-02-09T08:02:01.038Z,236.25
2023-02-09T08:03:00.976Z,202.50
2023-02-09T08:04:00.952Z,320.63
2023-02-09T08:05:01.218Z,427.50
2023-02-09T08:06:00.948Z,298.13
2023-02-09T08:07:00.939Z,247.50
2023-02-09T08:08:00.910Z,253.13
2023-02-09T08:09:00.900Z,163.13
2023-02-09T08:10:00.901Z,163.13
2023-02-09T08:11:00.877Z,163.13
2023-02-09T08:12:00.870Z,163.13
2023-02-09T08:13:00.843Z,168.75
2023-02-09T08:15:00.860Z,331.88
2023-02-09T08:16:00.843Z,298.13
2023-02-09T08:17:00.781Z,191.25
2023-02-09T08:18:00.785Z,185.63
2023-02-09T08:19:00.760Z,174.38
2023-02-09T08:20:00.759Z,168.75
2023-02-09T08:21:00.751Z,208.13
2023-02-09T08:22:00.738Z,275.63
2023-02-09T08:23:00.698Z,416.25
2023-02-09T08:24:00.692Z,697.50
2023-02-09T08:25:00.687Z,1074.38
2023-02-09T08:26:00.662Z,1260.00
2023-02-09T08:27:00.647Z,1271.25
2023-02-09T08:28:00.666Z,1237.50
2023-02-09T08:29:00.754Z,1220.63
2023-02-09T08:30:00.651Z,1215.00
2023-02-09T08:31:00.682Z,1170.00
2023-02-09T08:32:00.717Z,922.50
2023-02-09T08:33:00.598Z,472.50
2023-02-09T08:34:00.572Z,253.13
2023-02-09T08:35:00.544Z,219.38
2023-02-09T08:36:00.560Z,208.13
2023-02-09T08:37:00.516Z,208.13
2023-02-09T08:38:00.529Z,208.13
2023-02-09T08:39:00.524Z,208.13
2023-02-09T08:40:00.502Z,208.13
2023-02-09T08:41:00.512Z,208.13
2023-02-09T08:42:00.506Z,208.13
2023-02-09T08:43:00.435Z,208.13
2023-02-09T08:44:00.854Z,208.13
2023-02-09T08:45:00.416Z,208.13
2023-02-09T08:46:00.644Z,208.13
2023-02-09T08:47:00.599Z,208.13
2023-02-09T08:48:00.620Z,208.13
2023-02-09T08:49:00.386Z,208.13
2023-02-09T08:50:00.399Z,208.13
2023-02-09T08:51:00.381Z,208.13
2023-02-09T08:52:00.350Z,208.13
2023-02-09T08:53:00.335Z,208.13
2023-02-09T08:54:00.351Z,208.13
2023-02-09T08:55:00.348Z,208.13
2023-02-09T08:56:00.325Z,208.13
2023-02-09T08:57:00.281Z,208.13
2023-02-09T08:58:00.460Z,208.13
2023-02-09T08:59:00.458Z,208.13
2023-02-09T09:00:00.257Z,208.13
2023-02-09T09:01:00.348Z,208.13
2023-02-09T09:02:00.261Z,208.13
2023-02-09T09:03:00.218Z,208.13
2023-02-09T09:04:00.294Z,208.13
2023-02-09T09:05:00.208Z,208.13
2023-02-09T09:06:00.198Z,208.13
2023-02-09T09:07:00.162Z,208.13
2023-02-09T09:08:00.207Z,208.13
2023-02-09T09:09:00.163Z,208.13
2023-02-09T09:10:00.163Z,208.13
2023-02-09T09:11:00.138Z,213.75
2023-02-09T09:12:00.140Z,208.13
2023-02-09T09:13:00.131Z,208.13
2023-02-09T09:14:00.115Z,208.13
2023-02-09T09:15:00.115Z,208.13
2023-02-09T09:16:00.294Z,208.13
2023-02-09T09:17:00.375Z,208.13
2023-02-09T09:18:00.087Z,213.75
2023-02-09T09:19:00.076Z,213.75
2023-02-09T09:20:00.125Z,213.75
2023-02-09T09:21:00.046Z,213.75
2023-02-09T09:22:00.145Z,213.75
2023-02-09T09:23:00.047Z,213.75
2023-02-09T09:24:00.036Z,213.75
2023-02-09T09:25:00.001Z,213.75
2023-02-09T09:26:00.040Z,213.75
2023-02-09T09:27:00.055Z,213.75
2023-02-09T09:28:00.055Z,213.75
2023-02-09T09:29:00.005Z,213.75
2023-02-09T09:29:59.994Z,219.38
2023-02-09T09:31:00.072Z,219.38
2023-02-09T09:31:59.970Z,219.38
2023-02-09T09:33:00.067Z,225.00
2023-02-09T09:33:59.949Z,219.38
2023-02-09T09:34:59.912Z,219.38
2023-02-09T09:36:02.559Z,219.38
2023-02-09T09:36:59.920Z,219.38
2023-02-09T09:37:59.916Z,219.38
2023-02-09T09:39:00.318Z,225.00
2023-02-09T09:39:59.949Z,230.63
2023-02-09T09:40:59.858Z,236.25
2023-02-09T09:41:59.903Z,241.88
2023-02-09T09:42:59.895Z,253.13
2023-02-09T09:43:59.870Z,270.00
2023-02-09T09:44:59.821Z,303.75
2023-02-09T09:46:00.206Z,365.63
2023-02-09T09:46:59.810Z,798.75
2023-02-09T09:47:59.835Z,1434.38
2023-02-09T09:49:00.022Z,1597.50
2023-02-09T09:49:59.841Z,1603.13
2023-02-09T09:50:59.795Z,1563.75
2023-02-09T09:51:59.805Z,1530.00
2023-02-09T09:52:59.755Z,1524.38
2023-02-09T09:53:59.760Z,1541.25
2023-02-09T09:54:59.729Z,1552.50
2023-02-09T09:55:59.720Z,1558.13
2023-02-09T09:56:59.766Z,1541.25
2023-02-09T09:57:59.790Z,1530.00
2023-02-09T09:58:59.758Z,1530.00
2023-02-09T09:59:59.728Z,1518.75
2023-02-09T10:00:59.813Z,1490.63
2023-02-09T10:01:59.700Z,1501.88
2023-02-09T10:02:59.706Z,1541.25
2023-02-09T10:03:59.892Z,1541.25
2023-02-09T10:04:59.760Z,1496.25
2023-02-09T10:05:59.701Z,1451.25
2023-02-09T10:06:59.666Z,1445.63
2023-02-09T10:07:59.939Z,1473.75
2023-02-09T10:08:59.679Z,1490.63
2023-02-09T10:09:59.664Z,1434.38
2023-02-09T10:10:59.627Z,1378.13
2023-02-09T10:11:59.635Z,1361.25
2023-02-09T10:12:59.649Z,1366.88
2023-02-09T10:13:59.611Z,1395.00
2023-02-09T10:14:59.620Z,1400.63
2023-02-09T10:15:59.655Z,1428.75
2023-02-09T10:16:59.676Z,1462.50
2023-02-09T10:17:59.810Z,1440.00
2023-02-09T10:18:59.598Z,1400.63
2023-02-09T10:19:59.768Z,1361.25
2023-02-09T10:20:59.572Z,1372.50
2023-02-09T10:21:59.584Z,1406.25
2023-02-09T10:22:59.568Z,1400.63
2023-02-09T10:23:59.777Z,1361.25
2023-02-09T10:24:59.602Z,1265.63
2023-02-09T10:25:59.542Z,1023.75
2023-02-09T10:26:59.520Z,669.38
2023-02-09T10:27:59.587Z,438.75
2023-02-09T10:28:59.738Z,326.25
2023-02-09T10:29:59.556Z,286.88
2023-02-09T10:30:59.622Z,258.75
2023-02-09T10:31:59.585Z,258.75
2023-02-09T10:32:59.502Z,292.50
2023-02-09T10:33:59.498Z,343.13
2023-02-09T10:34:59.472Z,410.63
2023-02-09T10:35:59.502Z,511.88
2023-02-09T10:36:59.483Z,652.50
2023-02-09T10:37:59.436Z,832.50
2023-02-09T10:38:59.434Z,894.38
2023-02-09T10:39:59.504Z,545.63
2023-02-09T10:40:59.413Z,208.13
2023-02-09T10:41:59.396Z,191.25
2023-02-09T10:42:59.398Z,191.25
2023-02-09T10:43:59.377Z,191.25
2023-02-09T10:44:59.357Z,185.63
2023-02-09T10:45:59.453Z,185.63
2023-02-09T10:46:59.340Z,185.63
2023-02-09T10:47:59.353Z,180.00
2023-02-09T10:48:59.311Z,185.63
2023-02-09T10:49:59.337Z,180.00
2023-02-09T10:50:59.283Z,174.38
2023-02-09T10:51:59.356Z,174.38
2023-02-09T10:52:59.343Z,174.38
2023-02-09T10:53:59.261Z,174.38
2023-02-09T10:54:59.236Z,174.38
2023-02-09T10:55:59.239Z,174.38
2023-02-09T10:57:00.909Z,180.00
2023-02-09T10:57:59.202Z,180.00
2023-02-09T10:58:59.198Z,180.00
2023-02-09T10:59:59.173Z,180.00
2023-02-09T11:00:59.622Z,180.00
2023-02-09T11:01:59.154Z,180.00
2023-02-09T11:02:59.192Z,180.00
2023-02-09T11:03:59.431Z,174.38
2023-02-09T11:04:59.141Z,174.38
2023-02-09T11:05:59.143Z,174.38
2023-02-09T11:06:59.151Z,174.38
2023-02-09T11:07:59.332Z,174.38
2023-02-09T11:08:59.101Z,174.38
2023-02-09T11:09:59.123Z,174.38
2023-02-09T11:10:59.104Z,174.38
2023-02-09T11:11:59.077Z,168.75
2023-02-09T11:12:59.044Z,168.75
2023-02-09T11:13:59.061Z,168.75
2023-02-09T11:14:59.044Z,168.75
2023-02-09T11:15:59.094Z,163.13
2023-02-09T11:16:59.005Z,163.13
2023-02-09T11:17:58.984Z,163.13
2023-02-09T11:18:58.953Z,163.13
2023-02-09T11:19:59.013Z,163.13
2023-02-09T11:20:58.986Z,163.13
2023-02-09T11:21:58.971Z,157.50
2023-02-09T11:22:59.042Z,163.13
2023-02-09T11:23:58.936Z,157.50
2023-02-09T11:24:59.081Z,157.50
2023-02-09T11:25:58.891Z,157.50
2023-02-09T11:26:58.884Z,157.50
2023-02-09T11:27:58.971Z,157.50
2023-02-09T11:28:58.829Z,163.13
2023-02-09T11:29:58.868Z,157.50
2023-02-09T11:30:58.965Z,157.50
2023-02-09T11:31:58.853Z,157.50
2023-02-09T11:32:58.828Z,157.50
2023-02-09T11:33:58.853Z,157.50
2023-02-09T11:34:58.774Z,157.50
2023-02-09T11:35:58.767Z,157.50
2023-02-09T11:36:58.779Z,157.50
2023-02-09T11:37:58.750Z,157.50
2023-02-09T11:38:58.706Z,157.50
2023-02-09T11:39:58.741Z,157.50
2023-02-09T11:40:58.733Z,157.50
2023-02-09T11:41:58.682Z,157.50
2023-02-09T11:42:58.698Z,157.50
2023-02-09T11:43:58.718Z,151.88
2023-02-09T11:44:58.651Z,151.88
2023-02-09T11:45:58.757Z,151.88
2023-02-09T11:46:58.634Z,151.88
2023-02-09T11:47:58.590Z,151.88
2023-02-09T11:48:58.631Z,151.88
2023-02-09T11:49:58.582Z,151.88
2023-02-09T11:50:58.563Z,151.88
2023-02-09T11:51:58.769Z,151.88
2023-02-09T11:52:58.529Z,151.88
2023-02-09T11:53:58.734Z,146.25
2023-02-09T11:54:58.773Z,151.88
2023-02-09T11:55:58.538Z,151.88
2023-02-09T11:56:58.486Z,151.88
2023-02-09T11:57:58.482Z,151.88
2023-02-09T11:58:58.505Z,157.50
2023-02-09T11:59:58.506Z,180.00
2023-02-09T12:01:13.353Z,191.25
2023-02-09T12:01:58.437Z,196.88
2023-02-09T12:02:58.440Z,196.88
2023-02-09T12:03:58.425Z,219.38
2023-02-09T12:04:58.412Z,230.63
2023-02-09T12:05:58.419Z,225.00
2023-02-09T12:06:58.506Z,225.00
2023-02-09T12:07:58.369Z,219.38
2023-02-09T12:08:58.372Z,225.00
2023-02-09T12:09:58.338Z,213.75
2023-02-09T12:10:58.324Z,213.75
2023-02-09T12:11:58.306Z,213.75
2023-02-09T12:12:58.317Z,202.50
2023-02-09T12:13:58.316Z,180.00
2023-02-09T12:14:58.349Z,163.13
2023-02-09T12:15:58.379Z,146.25
2023-02-09T12:16:58.255Z,146.25
2023-02-09T12:17:58.644Z,135.00
2023-02-09T12:18:58.260Z,135.00
2023-02-09T12:19:58.436Z,135.00
2023-02-09T12:20:58.189Z,129.38
2023-02-09T12:21:58.182Z,129.38
2023-02-09T12:22:58.188Z,129.38
2023-02-09T12:23:58.156Z,135.00
2023-02-09T12:24:58.151Z,135.00
2023-02-09T12:25:58.160Z,129.38
2023-02-09T12:26:58.128Z,129.38
2023-02-09T12:27:58.150Z,129.38
2023-02-09T12:28:58.142Z,135.00
2023-02-09T12:29:58.155Z,135.00
2023-02-09T12:30:58.427Z,135.00
2023-02-09T12:31:58.124Z,135.00
2023-02-09T12:32:58.059Z,135.00
2023-02-09T12:33:58.026Z,129.38
2023-02-09T12:34:58.020Z,129.38
2023-02-09T12:35:58.197Z,129.38
2023-02-09T12:36:58.139Z,129.38
2023-02-09T12:37:58.046Z,123.75
2023-02-09T12:39:04.649Z,123.75
2023-02-09T12:39:59.982Z,123.75
2023-02-09T12:40:58.145Z,123.75
2023-02-09T12:41:57.936Z,123.75
2023-02-09T12:42:57.950Z,123.75
2023-02-09T12:43:57.921Z,123.75
2023-02-09T12:44:57.904Z,123.75
2023-02-09T12:45:57.953Z,123.75
2023-02-09T12:46:57.906Z,123.75
2023-02-09T12:47:57.893Z,118.13
2023-02-09T12:48:57.858Z,118.13
2023-02-09T12:49:57.824Z,118.13
2023-02-09T12:50:57.831Z,118.13
2023-02-09T12:51:57.796Z,118.13
2023-02-09T12:52:57.789Z,118.13